Sugar Land, TX (77479)

1:51 PM CDT on May 24, 2015 (GMT -0500)
Colony Bend | | Change Station
CLOSE
Current Station
Personal Weather Station
Location: Sugar Land, TX
Elevation: 79 ft
Nearby Weather Stations

Elev 79 ft 29.58 °N, 95.61 °W | Updated 9 minutes ago

Mostly Cloudy
Mostly Cloudy
80.6 °F
Feels Like 87 °F
N
2.7
Wind Variable Wind from South

Today
High -- | Low -- °F
--% Chance of Precip.
Yesterday
High -- | Low -- °F
Precip. -- in
6:25 AM 8:13 PM
Waxing Crescent, 41% visible
Pressure 29.96 in
Visibility 10.0 miles
Clouds Few 1600 ft
Heat Index 87 °F
Dew Point 76 °F
Humidity 87%
Rainfall 0.91 in
Snow Depth Not available.
UV 12 out of 12
Pollen .70 out of 12
Air Quality Not available.
Flu Activity Sporadic
METAR KSGR 241753Z 18010KT 10SM FEW016 25/21 A2996 RMK AO2 SLP145 60004 T02500211 10250 20211 53001

More Conditions Fewer Conditions

Pressure 29.96 in
Visibility 10.0 miles
Clouds Few 1600 ft
Heat Index 87 °F
Dew Point 76 °F
Humidity 87%
Rainfall 0.91 in
Snow Depth Not available.
UV 12 out of 12
Pollen .70 out of 12
Air Quality Not available.
Flu Activity Sporadic
METAR KSGR 241753Z 18010KT 10SM FEW016 25/21 A2996 RMK AO2 SLP145 60004 T02500211 10250 20211 53001

More Conditions Fewer Conditions

10-Day Weather Forecast

Almanac

Astronomy

May. 24, 2015 Rise Set
Actual Time
Civil Twilight
Nautical Twilight
Astronomical Twilight
Moon
Length of Visible Light
Length of Day
Tomorrow will be .
, % of the Moon is Illuminated

Today's Extremes

State Highs State Lows

Community

WunderPhotos

Upload Photos

1,823,821 photos uploaded!

WunderBlogs® & News

Nearby

Air Quality

  Air Quality AQ Index Pollutant
Not available.

Snow Depth

Station Depth Elevation

Earthquake Activity

City Distance Mag. Time & Date
Minimum magnitude displayed is 2.5.

Coastal Water Temperatures

Place Temperature

Stations

Nearby Weather Stations

Station Location Temp. Windchill Dew Point Humidity Wind Precip. Elev Updated Type